createdAt,value
2017-01-01T00:00:58.867Z,0
2017-01-01T00:02:09.593Z,0
2017-01-01T00:03:19.912Z,0
2017-01-01T00:04:30.629Z,0
2017-01-01T00:05:40.540Z,0
2017-01-01T00:06:50.498Z,0
2017-01-01T00:08:00.438Z,0
2017-01-01T00:09:11.166Z,0
2017-01-01T00:10:21.084Z,0
2017-01-01T00:11:31.036Z,0
2017-01-01T00:12:41.349Z,0
2017-01-01T00:13:52.097Z,0
2017-01-01T00:15:02.827Z,0
2017-01-01T00:16:13.554Z,0
2017-01-01T00:17:24.273Z,0
2017-01-01T00:18:34.981Z,0
2017-01-01T00:19:44.964Z,0
2017-01-01T00:20:55.287Z,0
2017-01-01T00:22:05.608Z,0
2017-01-01T00:23:16.328Z,0
2017-01-01T00:24:27.066Z,0
2017-01-01T00:25:37.832Z,0
2017-01-01T00:26:48.164Z,0
2017-01-01T00:27:58.097Z,0
2017-01-01T00:29:07.623Z,0
2017-01-01T00:30:18.333Z,0
2017-01-01T00:31:29.064Z,0
2017-01-01T00:32:39.787Z,0
2017-01-01T00:33:49.709Z,0
2017-01-01T00:34:59.626Z,0
2017-01-01T00:36:09.956Z,0
2017-01-01T00:37:19.885Z,0
2017-01-01T00:38:30.583Z,0
2017-01-01T00:39:40.909Z,0
2017-01-01T00:40:51.220Z,0
2017-01-01T00:42:00.746Z,0
2017-01-01T00:43:11.063Z,0
2017-01-01T00:44:22.010Z,0
2017-01-01T00:45:32.729Z,0
2017-01-01T00:46:43.043Z,0
2017-01-01T00:47:53.376Z,0
2017-01-01T00:49:03.702Z,0
2017-01-01T00:50:14.401Z,0
2017-01-01T00:51:24.742Z,0
2017-01-01T00:52:34.274Z,0
2017-01-01T00:53:44.593Z,0
2017-01-01T00:54:55.389Z,0
2017-01-01T00:56:05.712Z,0
2017-01-01T00:57:15.629Z,0
2017-01-01T00:58:25.564Z,0
2017-01-01T00:59:35.888Z,0
2017-01-01T01:00:46.208Z,0
2017-01-01T01:01:56.135Z,0
2017-01-01T01:03:06.080Z,0
2017-01-01T01:04:16.790Z,0
2017-01-01T01:05:26.701Z,0
2017-01-01T01:06:37.021Z,0
2017-01-01T01:07:47.341Z,0
2017-01-01T01:08:57.661Z,0
2017-01-01T01:10:08.381Z,0
2017-01-01T01:11:17.907Z,0
2017-01-01T01:12:27.840Z,0
2017-01-01T01:13:38.591Z,0
2017-01-01T01:14:48.908Z,0
2017-01-01T01:15:58.835Z,0
2017-01-01T01:17:09.581Z,0
2017-01-01T01:18:19.507Z,0
2017-01-01T01:19:30.233Z,0
2017-01-01T01:20:40.976Z,0
2017-01-01T01:21:51.686Z,0
2017-01-01T01:23:02.396Z,0
2017-01-01T01:24:12.707Z,0
2017-01-01T01:25:23.407Z,0
2017-01-01T01:26:33.724Z,0
2017-01-01T01:27:44.447Z,0
2017-01-01T01:28:53.583Z,0
2017-01-01T01:30:04.294Z,0
2017-01-01T01:31:14.220Z,0
2017-01-01T01:32:24.152Z,0
2017-01-01T01:33:34.089Z,0
2017-01-01T01:34:44.012Z,0
2017-01-01T01:35:54.345Z,0
2017-01-01T01:37:05.059Z,0
2017-01-01T01:38:15.379Z,0
2017-01-01T01:39:25.702Z,0
2017-01-01T01:40:36.451Z,0
2017-01-01T01:41:46.367Z,0
2017-01-01T01:42:56.297Z,0
2017-01-01T01:44:06.625Z,0
2017-01-01T01:45:16.552Z,0
2017-01-01T01:46:26.866Z,0
2017-01-01T01:47:36.811Z,0
2017-01-01T01:48:47.555Z,0
2017-01-01T01:49:58.287Z,0
2017-01-01T01:51:09.017Z,0
2017-01-01T01:52:18.952Z,0
2017-01-01T01:53:28.885Z,0
2017-01-01T01:54:39.193Z,0
2017-01-01T01:55:49.510Z,0
2017-01-01T01:57:00.249Z,0
2017-01-01T01:58:10.966Z,0
2017-01-01T01:59:21.696Z,0
2017-01-01T02:00:32.031Z,0
2017-01-01T02:01:42.348Z,0
2017-01-01T02:02:51.897Z,0
2017-01-01T02:04:01.836Z,0
2017-01-01T02:05:11.787Z,0
2017-01-01T02:06:21.708Z,0
2017-01-01T02:07:32.510Z,0
2017-01-01T02:08:43.225Z,0
2017-01-01T02:09:53.553Z,0
2017-01-01T02:11:03.480Z,0
2017-01-01T02:12:13.001Z,0
2017-01-01T02:13:23.320Z,0
2017-01-01T02:14:33.270Z,0
2017-01-01T02:15:43.994Z,0
2017-01-01T02:16:54.758Z,0
2017-01-01T02:18:05.465Z,0
2017-01-01T02:19:16.174Z,0
2017-01-01T02:20:26.104Z,0
2017-01-01T02:21:36.808Z,0
2017-01-01T02:22:47.122Z,0
2017-01-01T02:23:57.035Z,0
2017-01-01T02:25:07.352Z,0
2017-01-01T02:26:17.279Z,0
2017-01-01T02:27:27.209Z,0
2017-01-01T02:28:36.737Z,0
2017-01-01T02:29:46.655Z,0
2017-01-01T02:30:56.175Z,0
2017-01-01T02:32:06.498Z,0
2017-01-01T02:33:17.208Z,0
2017-01-01T02:34:27.135Z,0
2017-01-01T02:35:37.855Z,0
2017-01-01T02:36:47.788Z,0
2017-01-01T02:37:58.111Z,0
2017-01-01T02:39:08.431Z,0
2017-01-01T02:40:19.208Z,0
2017-01-01T02:41:29.132Z,0
2017-01-01T02:42:39.445Z,0
2017-01-01T02:43:49.399Z,0
2017-01-01T02:45:00.120Z,0
2017-01-01T02:46:10.440Z,0
2017-01-01T02:47:20.763Z,0
2017-01-01T02:48:30.706Z,0
2017-01-01T02:49:41.419Z,0
2017-01-01T02:50:52.127Z,0
2017-01-01T02:52:02.059Z,0
2017-01-01T02:53:12.379Z,0
2017-01-01T02:54:23.090Z,0
2017-01-01T02:55:33.829Z,0
2017-01-01T02:56:42.966Z,0
2017-01-01T02:57:52.888Z,0
2017-01-01T02:59:03.602Z,0
2017-01-01T03:00:13.928Z,0
2017-01-01T03:01:24.245Z,0
2017-01-01T03:02:34.958Z,0
2017-01-01T03:03:45.288Z,0
2017-01-01T03:04:55.210Z,0
2017-01-01T03:06:05.915Z,0
2017-01-01T03:07:16.232Z,0
2017-01-01T03:08:26.946Z,0
2017-01-01T03:09:37.653Z,0
2017-01-01T03:10:47.972Z,0
2017-01-01T03:11:58.696Z,0
2017-01-01T03:13:08.228Z,0
2017-01-01T03:14:17.751Z,0
2017-01-01T03:15:28.475Z,0
2017-01-01T03:16:38.785Z,0
2017-01-01T03:17:47.915Z,0
2017-01-01T03:18:58.237Z,0
2017-01-01T03:20:08.157Z,0
2017-01-01T03:21:18.484Z,0
2017-01-01T03:22:28.811Z,0
2017-01-01T03:23:38.728Z,0
2017-01-01T03:24:49.039Z,0
2017-01-01T03:25:59.752Z,0
2017-01-01T03:27:10.068Z,0
2017-01-01T03:28:19.991Z,0
2017-01-01T03:29:30.702Z,0
2017-01-01T03:30:41.015Z,0
2017-01-01T03:31:50.926Z,0
2017-01-01T03:33:01.642Z,0
2017-01-01T03:34:12.347Z,0
2017-01-01T03:35:23.060Z,0
2017-01-01T03:36:33.774Z,0
2017-01-01T03:37:44.093Z,0
2017-01-01T03:38:54.814Z,0
2017-01-01T03:40:05.127Z,0
2017-01-01T03:41:15.844Z,0
2017-01-01T03:42:26.592Z,0
2017-01-01T03:43:37.340Z,0
2017-01-01T03:44:47.664Z,0
2017-01-01T03:45:57.989Z,0
2017-01-01T03:47:07.526Z,0
2017-01-01T03:48:17.847Z,0
2017-01-01T03:49:27.369Z,0
2017-01-01T03:50:37.337Z,0
2017-01-01T03:51:47.657Z,0
2017-01-01T03:52:57.977Z,0
2017-01-01T03:54:08.685Z,0
2017-01-01T03:55:18.614Z,0
2017-01-01T03:56:28.926Z,0
2017-01-01T03:57:38.451Z,0
2017-01-01T03:58:48.373Z,0
2017-01-01T03:59:58.300Z,0
2017-01-01T04:01:09.014Z,0
2017-01-01T04:02:19.343Z,0
2017-01-01T04:03:29.670Z,0
2017-01-01T04:04:40.395Z,0
2017-01-01T04:05:51.096Z,0
2017-01-01T04:07:00.629Z,0
2017-01-01T04:08:10.954Z,0
2017-01-01T04:09:21.669Z,0
2017-01-01T04:10:31.984Z,0
2017-01-01T04:11:41.906Z,0
2017-01-01T04:12:52.645Z,0
2017-01-01T04:14:03.022Z,0
2017-01-01T04:15:13.339Z,0
2017-01-01T04:16:23.656Z,0
2017-01-01T04:17:33.570Z,0
2017-01-01T04:18:44.274Z,0
2017-01-01T04:19:54.600Z,0
2017-01-01T04:21:04.532Z,0
2017-01-01T04:22:15.243Z,0
2017-01-01T04:23:25.554Z,0
2017-01-01T04:24:35.470Z,0
2017-01-01T04:25:45.796Z,0
2017-01-01T04:26:56.377Z,0
2017-01-01T04:28:06.715Z,0
2017-01-01T04:29:17.028Z,0
2017-01-01T04:30:26.948Z,0
2017-01-01T04:31:37.656Z,0
2017-01-01T04:32:47.966Z,0
2017-01-01T04:33:58.289Z,0
2017-01-01T04:35:08.608Z,0
2017-01-01T04:36:18.519Z,0
2017-01-01T04:37:29.223Z,0
2017-01-01T04:38:39.533Z,0
2017-01-01T04:39:49.842Z,0
2017-01-01T04:40:59.771Z,0
2017-01-01T04:42:09.684Z,0
2017-01-01T04:43:19.996Z,0
2017-01-01T04:44:30.309Z,0
2017-01-01T04:45:41.036Z,0
2017-01-01T04:46:51.771Z,0
2017-01-01T04:48:02.095Z,0
2017-01-01T04:49:12.055Z,0
2017-01-01T04:50:22.373Z,0
2017-01-01T04:51:32.690Z,0
2017-01-01T04:52:43.398Z,0
2017-01-01T04:53:53.729Z,0
2017-01-01T04:55:03.651Z,0
2017-01-01T04:56:14.370Z,0
2017-01-01T04:57:25.085Z,0
2017-01-01T04:58:35.008Z,0
2017-01-01T04:59:44.928Z,0
2017-01-01T05:00:54.848Z,0
2017-01-01T05:02:04.766Z,0
2017-01-01T05:03:15.085Z,0
2017-01-01T05:04:25.406Z,0
2017-01-01T05:05:35.717Z,0
2017-01-01T05:06:46.035Z,0
2017-01-01T05:07:56.345Z,0
2017-01-01T05:09:06.661Z,0
2017-01-01T05:10:16.586Z,0
2017-01-01T05:11:26.901Z,0
2017-01-01T05:12:37.234Z,0
2017-01-01T05:13:47.942Z,0
2017-01-01T05:14:57.871Z,0
2017-01-01T05:16:08.578Z,0
2017-01-01T05:17:18.117Z,0
2017-01-01T05:18:28.435Z,0
2017-01-01T05:19:38.384Z,0
2017-01-01T05:20:49.092Z,0
2017-01-01T05:21:59.408Z,0
2017-01-01T05:23:08.925Z,0
2017-01-01T05:24:19.635Z,0
2017-01-01T05:25:28.756Z,0
2017-01-01T05:26:39.479Z,0
2017-01-01T05:27:49.408Z,0
2017-01-01T05:28:59.322Z,0
2017-01-01T05:30:09.249Z,0
2017-01-01T05:31:19.582Z,0
2017-01-01T05:32:29.537Z,0
2017-01-01T05:33:39.857Z,0
2017-01-01T05:34:50.180Z,0
2017-01-01T05:36:00.114Z,0
2017-01-01T05:37:10.843Z,0
2017-01-01T05:38:21.566Z,0
2017-01-01T05:39:31.893Z,0
2017-01-01T05:40:42.606Z,0
2017-01-01T05:41:52.917Z,0
2017-01-01T05:43:03.243Z,0
2017-01-01T05:44:13.969Z,0
2017-01-01T05:45:23.503Z,0
2017-01-01T05:46:33.823Z,0
2017-01-01T05:47:43.416Z,0
2017-01-01T05:48:53.333Z,0
2017-01-01T05:50:02.851Z,0
2017-01-01T05:51:12.786Z,0
2017-01-01T05:52:23.500Z,0
2017-01-01T05:53:34.263Z,0
2017-01-01T05:54:43.798Z,0
2017-01-01T05:55:54.512Z,0
2017-01-01T05:57:04.448Z,0
2017-01-01T05:58:14.371Z,0
2017-01-01T05:59:24.695Z,0
2017-01-01T06:00:35.015Z,0
2017-01-01T06:01:44.928Z,0
2017-01-01T06:02:54.858Z,0
2017-01-01T06:04:05.166Z,0
2017-01-01T06:05:15.084Z,0
2017-01-01T06:06:25.419Z,0
2017-01-01T06:07:35.338Z,0
2017-01-01T06:08:46.039Z,0
2017-01-01T06:09:56.356Z,0
2017-01-01T06:11:06.657Z,0
2017-01-01T06:12:16.983Z,0
2017-01-01T06:13:27.691Z,0
2017-01-01T06:14:38.398Z,0
2017-01-01T06:15:48.753Z,0
2017-01-01T06:16:59.057Z,0
2017-01-01T06:18:09.379Z,0
2017-01-01T06:19:20.091Z,0
2017-01-01T06:20:30.401Z,0
2017-01-01T06:21:40.728Z,0
2017-01-01T06:22:51.042Z,0
2017-01-01T06:24:01.369Z,0
2017-01-01T06:25:12.072Z,0
2017-01-01T06:26:22.786Z,0
2017-01-01T06:27:33.497Z,0
2017-01-01T06:28:43.819Z,0
2017-01-01T06:29:53.747Z,0
2017-01-01T06:31:03.673Z,0
2017-01-01T06:32:13.599Z,0
2017-01-01T06:33:23.944Z,0
2017-01-01T06:34:33.877Z,0
2017-01-01T06:35:44.192Z,0
2017-01-01T06:36:54.502Z,0
2017-01-01T06:38:04.819Z,0
2017-01-01T06:39:14.346Z,0
2017-01-01T06:40:23.875Z,0
2017-01-01T06:41:34.195Z,0
2017-01-01T06:42:44.140Z,0
2017-01-01T06:43:54.470Z,0
2017-01-01T06:45:05.178Z,0
2017-01-01T06:46:15.880Z,0
2017-01-01T06:47:26.589Z,0
2017-01-01T06:48:36.941Z,0
2017-01-01T06:49:46.865Z,0
2017-01-01T06:50:57.187Z,0
2017-01-01T06:52:07.897Z,0
2017-01-01T06:53:18.212Z,0
2017-01-01T06:54:28.530Z,0
2017-01-01T06:55:38.839Z,0
2017-01-01T06:56:49.569Z,0
2017-01-01T06:57:59.895Z,0
2017-01-01T06:59:09.412Z,0
2017-01-01T07:00:19.738Z,0
2017-01-01T07:01:30.049Z,0
2017-01-01T07:02:40.363Z,0
2017-01-01T07:03:50.688Z,0
2017-01-01T07:05:00.609Z,0
2017-01-01T07:06:10.923Z,0
2017-01-01T07:07:20.847Z,0
2017-01-01T07:08:31.560Z,0
2017-01-01T07:09:41.874Z,4
2017-01-01T07:10:52.182Z,4
2017-01-01T07:12:02.498Z,4
2017-01-01T07:13:12.827Z,0
2017-01-01T07:14:22.738Z,0
2017-01-01T07:15:33.048Z,0
2017-01-01T07:16:43.765Z,0
2017-01-01T07:17:54.472Z,4
2017-01-01T07:19:04.395Z,4
2017-01-01T07:20:15.116Z,4
2017-01-01T07:21:25.426Z,4
2017-01-01T07:22:35.356Z,4
2017-01-01T07:23:45.670Z,4
2017-01-01T07:24:56.396Z,4
2017-01-01T07:26:06.726Z,4
2017-01-01T07:27:17.430Z,4
2017-01-01T07:28:27.753Z,8
2017-01-01T07:29:38.537Z,4
2017-01-01T07:30:48.073Z,4
2017-01-01T07:31:58.396Z,8
2017-01-01T07:33:08.311Z,8
2017-01-01T07:34:19.037Z,4
2017-01-01T07:35:29.354Z,8
2017-01-01T07:36:39.677Z,8
2017-01-01T07:37:50.025Z,8
2017-01-01T07:39:00.343Z,8
2017-01-01T07:40:10.679Z,8
2017-01-01T07:41:20.599Z,8
2017-01-01T07:42:31.306Z,12
2017-01-01T07:43:41.771Z,8
2017-01-01T07:44:52.081Z,12
2017-01-01T07:46:02.403Z,12
2017-01-01T07:47:12.721Z,8
2017-01-01T07:48:23.034Z,12
2017-01-01T07:49:32.942Z,12
2017-01-01T07:50:43.252Z,12
2017-01-01T07:51:53.575Z,12
2017-01-01T07:53:04.301Z,16
2017-01-01T07:54:14.635Z,12
2017-01-01T07:55:23.370Z,12
2017-01-01T07:56:33.678Z,16
2017-01-01T07:57:43.988Z,12
2017-01-01T07:58:53.899Z,16
2017-01-01T08:00:04.222Z,16
2017-01-01T08:01:14.155Z,16
2017-01-01T08:02:24.069Z,20
2017-01-01T08:03:33.598Z,16
2017-01-01T08:04:44.315Z,20
2017-01-01T08:05:53.842Z,20
2017-01-01T08:07:04.186Z,20
2017-01-01T08:08:14.504Z,20
2017-01-01T08:09:25.241Z,20
2017-01-01T08:10:35.541Z,20
2017-01-01T08:11:45.468Z,20
2017-01-01T08:12:55.777Z,20
2017-01-01T08:14:05.705Z,16
2017-01-01T08:15:16.417Z,20
2017-01-01T08:16:25.947Z,20
2017-01-01T08:17:35.077Z,20
2017-01-01T08:18:45.816Z,16
2017-01-01T08:19:55.377Z,20
2017-01-01T08:21:05.314Z,16
2017-01-01T08:22:16.044Z,16
2017-01-01T08:23:25.955Z,16
2017-01-01T08:24:35.868Z,16
2017-01-01T08:25:45.799Z,16
2017-01-01T08:26:55.719Z,16
2017-01-01T08:28:05.636Z,16
2017-01-01T08:29:15.943Z,16
2017-01-01T08:30:26.253Z,16
2017-01-01T08:31:36.980Z,16
2017-01-01T08:32:46.899Z,12
2017-01-01T08:33:57.209Z,16
2017-01-01T08:35:07.531Z,12
2017-01-01T08:36:17.859Z,12
2017-01-01T08:37:27.781Z,12
2017-01-01T08:38:38.897Z,16
2017-01-01T08:39:49.207Z,16
2017-01-01T08:40:59.539Z,16
2017-01-01T08:42:09.856Z,16
2017-01-01T08:43:19.815Z,12
2017-01-01T08:44:30.524Z,16
2017-01-01T08:45:40.848Z,16
2017-01-01T08:46:50.780Z,20
2017-01-01T08:48:01.114Z,16
2017-01-01T08:49:11.455Z,16
2017-01-01T08:50:21.376Z,16
2017-01-01T08:51:31.286Z,16
2017-01-01T08:52:40.806Z,16
2017-01-01T08:53:50.322Z,16
2017-01-01T08:55:00.645Z,20
2017-01-01T08:56:10.174Z,20
2017-01-01T08:57:20.492Z,20
2017-01-01T08:58:30.808Z,20
2017-01-01T08:59:41.765Z,20
2017-01-01T09:00:52.098Z,20
2017-01-01T09:02:02.050Z,16
2017-01-01T09:03:11.192Z,20
2017-01-01T09:04:21.139Z,16
2017-01-01T09:05:31.861Z,20
2017-01-01T09:06:42.590Z,20
2017-01-01T09:07:52.897Z,20
2017-01-01T09:09:03.211Z,20
2017-01-01T09:10:13.921Z,20
2017-01-01T09:11:24.625Z,20
2017-01-01T09:12:35.335Z,24
2017-01-01T09:13:45.254Z,28
2017-01-01T09:14:55.575Z,24
2017-01-01T09:16:05.897Z,28
2017-01-01T09:17:15.021Z,28
2017-01-01T09:18:25.363Z,24
2017-01-01T09:19:36.080Z,28
2017-01-01T09:20:46.794Z,24
2017-01-01T09:21:57.501Z,28
2017-01-01T09:23:07.455Z,28
2017-01-01T09:24:17.778Z,28
2017-01-01T09:25:28.515Z,28
2017-01-01T09:26:38.834Z,28
2017-01-01T09:27:48.763Z,28
2017-01-01T09:28:58.706Z,32
2017-01-01T09:30:08.639Z,32
2017-01-01T09:31:18.178Z,28
2017-01-01T09:32:28.520Z,28
2017-01-01T09:33:38.827Z,36
2017-01-01T09:34:49.173Z,32
2017-01-01T09:35:59.880Z,32
2017-01-01T09:37:10.600Z,36
2017-01-01T09:38:21.327Z,36
2017-01-01T09:39:31.678Z,40
2017-01-01T09:40:42.391Z,36
2017-01-01T09:41:53.105Z,36
2017-01-01T09:43:03.037Z,36
2017-01-01T09:44:13.454Z,40
2017-01-01T09:45:23.377Z,36
2017-01-01T09:46:33.693Z,44
2017-01-01T09:47:44.406Z,48
2017-01-01T09:48:54.333Z,48
2017-01-01T09:50:04.247Z,48
2017-01-01T09:51:14.170Z,44
2017-01-01T09:52:24.518Z,44
2017-01-01T09:53:34.954Z,44
2017-01-01T09:54:45.264Z,44
2017-01-01T09:55:55.184Z,44
2017-01-01T09:57:05.914Z,44
2017-01-01T09:58:16.637Z,44
2017-01-01T09:59:26.565Z,44
2017-01-01T10:00:37.279Z,44
2017-01-01T10:01:47.596Z,44
2017-01-01T10:02:57.516Z,44
2017-01-01T10:04:07.839Z,48
2017-01-01T10:05:18.160Z,48
2017-01-01T10:06:28.870Z,48
2017-01-01T10:07:38.399Z,48
2017-01-01T10:08:48.329Z,48
2017-01-01T10:09:58.658Z,48
2017-01-01T10:11:08.609Z,44
2017-01-01T10:12:18.927Z,48
2017-01-01T10:13:29.656Z,44
2017-01-01T10:14:40.369Z,44
2017-01-01T10:15:51.085Z,32
2017-01-01T10:17:01.408Z,28
2017-01-01T10:18:12.122Z,32
2017-01-01T10:19:22.444Z,32
2017-01-01T10:20:32.381Z,28
2017-01-01T10:21:42.698Z,32
2017-01-01T10:22:53.424Z,36
2017-01-01T10:24:03.365Z,28
2017-01-01T10:25:13.692Z,32
2017-01-01T10:26:24.405Z,32
2017-01-01T10:27:34.729Z,32
2017-01-01T10:28:44.655Z,32
2017-01-01T10:29:55.384Z,32
2017-01-01T10:31:05.304Z,32
2017-01-01T10:32:15.237Z,36
2017-01-01T10:33:25.558Z,40
2017-01-01T10:34:35.896Z,36
2017-01-01T10:35:46.226Z,32
2017-01-01T10:36:56.164Z,32
2017-01-01T10:38:06.881Z,32
2017-01-01T10:39:17.599Z,36
2017-01-01T10:40:27.925Z,36
2017-01-01T10:41:38.288Z,32
2017-01-01T10:42:48.218Z,32
2017-01-01T10:43:58.554Z,28
2017-01-01T10:45:09.282Z,32
2017-01-01T10:46:19.660Z,28
2017-01-01T10:47:29.985Z,32
2017-01-01T10:48:39.938Z,32
2017-01-01T10:49:50.259Z,32
2017-01-01T10:51:00.185Z,32
2017-01-01T10:52:10.515Z,28
2017-01-01T10:53:21.215Z,32
2017-01-01T10:54:31.148Z,28
2017-01-01T10:55:41.485Z,32
2017-01-01T10:56:51.417Z,32
2017-01-01T10:58:01.347Z,32
2017-01-01T10:59:10.911Z,32
2017-01-01T11:00:20.831Z,32
2017-01-01T11:01:31.564Z,32
2017-01-01T11:02:42.285Z,32
2017-01-01T11:03:52.220Z,32
2017-01-01T11:05:01.756Z,32
2017-01-01T11:06:11.690Z,32
2017-01-01T11:07:22.067Z,28
2017-01-01T11:08:32.792Z,32
2017-01-01T11:09:42.741Z,28
2017-01-01T11:10:52.664Z,32
2017-01-01T11:12:02.984Z,28
2017-01-01T11:13:12.924Z,28
2017-01-01T11:14:23.256Z,28
2017-01-01T11:15:33.598Z,28
2017-01-01T11:16:43.918Z,28
2017-01-01T11:17:54.276Z,28
2017-01-01T11:19:04.208Z,32
2017-01-01T11:20:14.526Z,28
2017-01-01T11:21:24.856Z,28
2017-01-01T11:22:35.192Z,28
2017-01-01T11:23:45.117Z,28
2017-01-01T11:24:55.856Z,24
2017-01-01T11:26:06.211Z,28
2017-01-01T11:27:16.148Z,24
2017-01-01T11:28:26.864Z,28
2017-01-01T11:29:36.836Z,24
2017-01-01T11:30:47.165Z,24
2017-01-01T11:31:57.503Z,28
2017-01-01T11:33:07.824Z,28
2017-01-01T11:34:18.180Z,28
2017-01-01T11:35:28.490Z,28
2017-01-01T11:36:38.825Z,24
2017-01-01T11:37:48.786Z,24
2017-01-01T11:38:59.120Z,24
2017-01-01T11:40:09.043Z,24
2017-01-01T11:41:19.392Z,24
2017-01-01T11:42:29.722Z,24
2017-01-01T11:43:39.648Z,28
2017-01-01T11:44:50.041Z,28
2017-01-01T11:46:00.758Z,24
2017-01-01T11:47:11.098Z,24
2017-01-01T11:48:21.417Z,24
2017-01-01T11:49:32.149Z,28
2017-01-01T11:50:42.873Z,24
2017-01-01T11:51:53.585Z,24
2017-01-01T11:53:03.934Z,24
2017-01-01T11:54:14.653Z,20
2017-01-01T11:55:24.983Z,24
2017-01-01T11:56:34.923Z,24
2017-01-01T11:57:45.268Z,24
2017-01-01T11:58:56.008Z,24
2017-01-01T12:00:06.740Z,20
2017-01-01T12:01:17.470Z,20
2017-01-01T12:02:27.800Z,20
2017-01-01T12:03:37.766Z,16
2017-01-01T12:04:47.707Z,16
2017-01-01T12:05:58.444Z,16
2017-01-01T12:07:08.782Z,16
2017-01-01T12:08:19.107Z,20
2017-01-01T12:09:29.455Z,16
2017-01-01T12:10:39.811Z,20
2017-01-01T12:11:50.152Z,16
2017-01-01T12:13:00.874Z,16
2017-01-01T12:14:11.201Z,16
2017-01-01T12:15:22.238Z,16
2017-01-01T12:16:32.997Z,16
2017-01-01T12:17:43.743Z,12
2017-01-01T12:18:54.079Z,16
2017-01-01T12:20:04.847Z,16
2017-01-01T12:21:15.580Z,16
2017-01-01T12:22:26.310Z,12
2017-01-01T12:23:37.044Z,16
2017-01-01T12:24:47.767Z,16
2017-01-01T12:25:57.751Z,12
2017-01-01T12:27:07.703Z,12
2017-01-01T12:28:18.038Z,12
2017-01-01T12:29:28.365Z,12
2017-01-01T12:30:38.690Z,12
2017-01-01T12:31:49.441Z,12
2017-01-01T12:33:00.181Z,12
2017-01-01T12:34:10.511Z,8
2017-01-01T12:35:21.245Z,12
2017-01-01T12:36:31.591Z,12
2017-01-01T12:37:41.987Z,8
2017-01-01T12:38:51.553Z,8
2017-01-01T12:40:01.897Z,12
2017-01-01T12:41:11.838Z,12
2017-01-01T12:42:22.565Z,8
2017-01-01T12:43:32.937Z,8
2017-01-01T12:44:43.746Z,8
2017-01-01T12:45:53.331Z,8
2017-01-01T12:47:04.128Z,8
2017-01-01T12:48:14.934Z,8
2017-01-01T12:49:25.700Z,8
2017-01-01T12:50:36.037Z,8
2017-01-01T12:51:46.363Z,8
2017-01-01T12:52:56.755Z,8
2017-01-01T12:54:07.132Z,8
2017-01-01T12:55:17.100Z,8
2017-01-01T12:56:27.045Z,8
2017-01-01T12:57:37.778Z,8
2017-01-01T12:58:48.566Z,8
2017-01-01T13:00:00.143Z,8
2017-01-01T13:01:10.873Z,4
2017-01-01T13:02:21.222Z,8
2017-01-01T13:03:31.571Z,8
2017-01-01T13:04:42.311Z,8
2017-01-01T13:05:53.048Z,8
2017-01-01T13:07:03.784Z,4
2017-01-01T13:08:14.117Z,4
2017-01-01T13:09:24.846Z,8
2017-01-01T13:10:35.579Z,4
2017-01-01T13:11:46.357Z,8
2017-01-01T13:12:57.131Z,8
2017-01-01T13:14:07.880Z,8
2017-01-01T13:15:18.636Z,8
2017-01-01T13:16:29.367Z,8
2017-01-01T13:17:39.697Z,8
2017-01-01T13:18:50.433Z,8
2017-01-01T13:20:00.764Z,4
2017-01-01T13:21:11.089Z,4
2017-01-01T13:22:21.933Z,4
2017-01-01T13:23:32.670Z,4
2017-01-01T13:24:43.515Z,8
2017-01-01T13:25:54.373Z,8
2017-01-01T13:27:05.242Z,8
2017-01-01T13:28:16.108Z,4
2017-01-01T13:29:26.911Z,4
2017-01-01T13:30:36.875Z,4
2017-01-01T13:31:47.259Z,4
2017-01-01T13:32:58.002Z,4
2017-01-01T13:34:08.821Z,4
2017-01-01T13:35:19.174Z,4
2017-01-01T13:36:29.930Z,4
2017-01-01T13:37:40.720Z,4
2017-01-01T13:38:51.100Z,4
2017-01-01T13:40:01.456Z,4
2017-01-01T13:41:11.781Z,4
2017-01-01T13:42:22.581Z,4
2017-01-01T13:43:32.912Z,4
2017-01-01T13:44:42.882Z,4
2017-01-01T13:45:53.229Z,4
2017-01-01T13:47:04.051Z,4
2017-01-01T13:48:14.862Z,4
2017-01-01T13:49:24.814Z,4
2017-01-01T13:50:35.593Z,4
2017-01-01T13:51:46.489Z,4
2017-01-01T13:52:56.859Z,4
2017-01-01T13:54:07.231Z,4
2017-01-01T13:55:17.636Z,4
2017-01-01T13:56:28.480Z,4
2017-01-01T13:57:39.297Z,4
2017-01-01T13:58:50.038Z,4
2017-01-01T14:00:00.913Z,4
2017-01-01T14:01:10.945Z,0
2017-01-01T14:02:21.278Z,0
2017-01-01T14:03:32.169Z,0
2017-01-01T14:04:42.967Z,0
2017-01-01T14:05:53.966Z,0
2017-01-01T14:07:04.361Z,0
2017-01-01T14:08:15.258Z,0
2017-01-01T14:09:25.641Z,4
2017-01-01T14:10:35.180Z,4
2017-01-01T14:11:45.985Z,4
2017-01-01T14:12:55.601Z,4
2017-01-01T14:14:06.389Z,4
2017-01-01T14:15:16.861Z,4
2017-01-01T14:16:27.221Z,4
2017-01-01T14:17:38.074Z,4
2017-01-01T14:18:48.196Z,4
2017-01-01T14:19:57.860Z,0
2017-01-01T14:21:08.748Z,0
2017-01-01T14:22:19.397Z,0
2017-01-01T14:23:29.974Z,0
2017-01-01T14:24:40.322Z,0
2017-01-01T14:25:51.130Z,0
2017-01-01T14:27:01.550Z,0
2017-01-01T14:28:12.010Z,0
2017-01-01T14:29:22.959Z,0
2017-01-01T14:30:33.784Z,0
2017-01-01T14:31:44.559Z,0
2017-01-01T14:32:54.675Z,0
2017-01-01T14:34:05.617Z,0
2017-01-01T14:35:16.482Z,0
2017-01-01T14:36:27.435Z,0
2017-01-01T14:37:38.292Z,0
2017-01-01T14:38:49.238Z,0
2017-01-01T14:39:59.896Z,0
2017-01-01T14:41:10.348Z,0
2017-01-01T14:42:21.281Z,0
2017-01-01T14:43:31.776Z,0
2017-01-01T14:44:42.400Z,0
2017-01-01T14:45:52.987Z,0
2017-01-01T14:47:03.965Z,0
2017-01-01T14:48:14.424Z,0
2017-01-01T14:49:25.221Z,0
2017-01-01T14:50:36.442Z,0
2017-01-01T14:51:47.686Z,0
2017-01-01T14:52:58.787Z,0
2017-01-01T14:54:09.658Z,0
2017-01-01T14:55:20.287Z,0
2017-01-01T14:56:31.545Z,0
2017-01-01T14:57:41.914Z,0
2017-01-01T14:58:52.701Z,0
2017-01-01T15:00:02.830Z,0
2017-01-01T15:01:14.109Z,0
2017-01-01T15:02:24.880Z,0
2017-01-01T15:03:36.066Z,0
2017-01-01T15:04:47.034Z,0
2017-01-01T15:05:57.507Z,0
2017-01-01T15:07:08.194Z,0
2017-01-01T15:08:19.565Z,0
2017-01-01T15:09:30.941Z,0
2017-01-01T15:10:41.447Z,0
2017-01-01T15:11:51.865Z,0
2017-01-01T15:13:02.316Z,0
2017-01-01T15:14:13.651Z,0
2017-01-01T15:15:24.417Z,0
2017-01-01T15:16:35.295Z,0
2017-01-01T15:17:46.082Z,0
2017-01-01T15:18:57.338Z,0
2017-01-01T15:20:07.898Z,0
2017-01-01T15:21:18.747Z,0
2017-01-01T15:22:29.424Z,0
2017-01-01T15:23:41.109Z,0
2017-01-01T15:24:52.378Z,0
2017-01-01T15:26:02.801Z,0
2017-01-01T15:27:14.454Z,0
2017-01-01T15:28:26.109Z,0
2017-01-01T15:29:37.821Z,0
2017-01-01T15:30:49.946Z,0
2017-01-01T15:31:59.741Z,0
2017-01-01T15:33:12.084Z,0
2017-01-01T15:34:22.692Z,0
2017-01-01T15:35:34.316Z,0
2017-01-01T15:36:45.502Z,0
2017-01-01T15:37:56.954Z,0
2017-01-01T15:39:08.074Z,0
2017-01-01T15:40:19.357Z,0
2017-01-01T15:41:31.579Z,0
2017-01-01T15:42:42.614Z,0
2017-01-01T15:43:53.965Z,0
2017-01-01T15:45:05.568Z,0
2017-01-01T15:46:17.382Z,0
2017-01-01T15:47:28.468Z,0
2017-01-01T15:48:39.974Z,0
2017-01-01T15:49:51.707Z,0
2017-01-01T15:51:01.974Z,0
2017-01-01T15:52:14.428Z,0
2017-01-01T15:53:25.641Z,0
2017-01-01T15:54:38.767Z,0
2017-01-01T15:55:50.720Z,0
2017-01-01T15:57:01.597Z,0
2017-01-01T15:58:12.443Z,0
2017-01-01T15:59:23.570Z,0
2017-01-01T16:00:36.228Z,0
2017-01-01T16:01:48.039Z,0
2017-01-01T16:02:59.733Z,0
2017-01-01T16:04:10.721Z,0
2017-01-01T16:05:21.941Z,0
2017-01-01T16:06:34.222Z,0
2017-01-01T16:07:46.105Z,0
2017-01-01T16:08:58.445Z,0
2017-01-01T16:10:09.335Z,0
2017-01-01T16:11:21.567Z,0
2017-01-01T16:12:34.213Z,0
2017-01-01T16:13:46.130Z,0
2017-01-01T16:14:58.429Z,0
2017-01-01T16:16:09.567Z,0
2017-01-01T16:17:21.347Z,0
2017-01-01T16:18:33.007Z,0
2017-01-01T16:19:45.437Z,0
2017-01-01T16:20:56.553Z,0
2017-01-01T16:22:08.699Z,0
2017-01-01T16:23:20.145Z,0
2017-01-01T16:24:32.118Z,0
2017-01-01T16:25:43.545Z,0
2017-01-01T16:26:55.119Z,0
2017-01-01T16:28:06.983Z,0
2017-01-01T16:29:20.197Z,0
2017-01-01T16:30:31.770Z,0
2017-01-01T16:31:43.817Z,0
2017-01-01T16:32:55.043Z,0
2017-01-01T16:34:08.123Z,0
2017-01-01T16:35:19.589Z,0
2017-01-01T16:36:32.117Z,0
2017-01-01T16:37:43.827Z,0
2017-01-01T16:38:56.782Z,0
2017-01-01T16:40:08.715Z,0
2017-01-01T16:41:20.606Z,0
2017-01-01T16:42:33.418Z,0
2017-01-01T16:43:45.263Z,0
2017-01-01T16:44:56.761Z,0
2017-01-01T16:46:08.959Z,0
2017-01-01T16:47:19.829Z,0
2017-01-01T16:48:32.846Z,0
2017-01-01T16:49:44.403Z,0
2017-01-01T16:50:56.799Z,0
2017-01-01T16:52:07.096Z,0
2017-01-01T16:53:18.972Z,0
2017-01-01T16:54:30.068Z,0
2017-01-01T16:55:41.547Z,0
2017-01-01T16:56:54.118Z,0
2017-01-01T16:58:05.341Z,0
2017-01-01T16:59:17.887Z,0
2017-01-01T17:00:29.469Z,0
2017-01-01T17:01:42.342Z,0
2017-01-01T17:02:54.681Z,0
2017-01-01T17:04:06.130Z,0
2017-01-01T17:05:18.458Z,0
2017-01-01T17:06:30.288Z,0
2017-01-01T17:07:42.696Z,0
2017-01-01T17:08:53.828Z,0
2017-01-01T17:10:06.290Z,0
2017-01-01T17:11:18.108Z,0
2017-01-01T17:12:30.691Z,0